sensor_id;sensor_type;location;lat;lon;timestamp;temperature;humidity
8436;DHT22;4255;48.730;9.156;2023-07-29T00:01:35;19.50;99.90
8436;DHT22;4255;48.730;9.156;2023-07-29T00:04:01;19.60;99.90
8436;DHT22;4255;48.730;9.156;2023-07-29T00:06:27;19.50;99.90
8436;DHT22;4255;48.730;9.156;2023-07-29T00:08:53;19.60;99.90
8436;DHT22;4255;48.730;9.156;2023-07-29T00:11:18;19.60;99.90
8436;DHT22;4255;48.730;9.156;2023-07-29T00:13:45;19.50;99.90
8436;DHT22;4255;48.730;9.156;2023-07-29T00:16:10;19.50;99.90
8436;DHT22;4255;48.730;9.156;2023-07-29T00:18:39;19.60;99.90
8436;DHT22;4255;48.730;9.156;2023-07-29T00:21:04;19.60;99.90
8436;DHT22;4255;48.730;9.156;2023-07-29T00:23:30;19.60;99.90
8436;DHT22;4255;48.730;9.156;2023-07-29T00:25:55;19.50;99.90
8436;DHT22;4255;48.730;9.156;2023-07-29T00:28:21;19.50;99.90
8436;DHT22;4255;48.730;9.156;2023-07-29T00:30:47;19.70;99.90
8436;DHT22;4255;48.730;9.156;2023-07-29T00:33:12;19.70;99.90
8436;DHT22;4255;48.730;9.156;2023-07-29T00:35:38;19.80;99.90
8436;DHT22;4255;48.730;9.156;2023-07-29T00:38:03;19.80;99.90
8436;DHT22;4255;48.730;9.156;2023-07-29T00:40:29;19.80;99.90
8436;DHT22;4255;48.730;9.156;2023-07-29T00:42:55;19.80;99.90
8436;DHT22;4255;48.730;9.156;2023-07-29T00:45:22;19.90;99.90
8436;DHT22;4255;48.730;9.156;2023-07-29T00:47:48;19.90;99.90
8436;DHT22;4255;48.730;9.156;2023-07-29T00:50:15;19.90;99.90
8436;DHT22;4255;48.730;9.156;2023-07-29T00:52:41;19.90;99.90
8436;DHT22;4255;48.730;9.156;2023-07-29T00:55:07;19.70;99.90
8436;DHT22;4255;48.730;9.156;2023-07-29T00:57:33;19.60;99.90
8436;DHT22;4255;48.730;9.156;2023-07-29T01:00:00;19.60;99.90
8436;DHT22;4255;48.730;9.156;2023-07-29T01:02:26;19.50;99.90
8436;DHT22;4255;48.730;9.156;2023-07-29T01:04:58;19.40;99.90
8436;DHT22;4255;48.730;9.156;2023-07-29T01:07:47;19.40;99.90
8436;DHT22;4255;48.730;9.156;2023-07-29T01:10:23;19.50;99.90
8436;DHT22;4255;48.730;9.156;2023-07-29T01:15:54;19.50;99.90
8436;DHT22;4255;48.730;9.156;2023-07-29T01:18:27;19.60;99.90
8436;DHT22;4255;48.730;9.156;2023-07-29T01:20:58;19.40;99.90
8436;DHT22;4255;48.730;9.156;2023-07-29T01:23:28;19.50;99.90
8436;DHT22;4255;48.730;9.156;2023-07-29T01:25:54;19.60;99.90
8436;DHT22;4255;48.730;9.156;2023-07-29T01:28:20;19.60;99.90
8436;DHT22;4255;48.730;9.156;2023-07-29T01:30:49;19.70;99.90
8436;DHT22;4255;48.730;9.156;2023-07-29T01:33:24;19.80;99.90
8436;DHT22;4255;48.730;9.156;2023-07-29T01:36:11;19.80;99.90
8436;DHT22;4255;48.730;9.156;2023-07-29T01:38:41;19.90;99.90
8436;DHT22;4255;48.730;9.156;2023-07-29T01:41:09;19.70;99.90
8436;DHT22;4255;48.730;9.156;2023-07-29T01:43:36;19.60;99.90
8436;DHT22;4255;48.730;9.156;2023-07-29T01:46:12;19.60;99.90
8436;DHT22;4255;48.730;9.156;2023-07-29T01:48:38;19.60;99.90
8436;DHT22;4255;48.730;9.156;2023-07-29T01:51:05;19.60;99.90
8436;DHT22;4255;48.730;9.156;2023-07-29T01:53:30;19.40;99.90
8436;DHT22;4255;48.730;9.156;2023-07-29T01:55:56;19.60;99.90
8436;DHT22;4255;48.730;9.156;2023-07-29T01:58:22;19.70;99.90
8436;DHT22;4255;48.730;9.156;2023-07-29T02:00:48;19.70;99.90
8436;DHT22;4255;48.730;9.156;2023-07-29T02:03:13;19.70;99.90
8436;DHT22;4255;48.730;9.156;2023-07-29T02:05:39;19.70;99.90
8436;DHT22;4255;48.730;9.156;2023-07-29T02:08:05;19.60;99.90
8436;DHT22;4255;48.730;9.156;2023-07-29T02:10:31;19.60;99.90
8436;DHT22;4255;48.730;9.156;2023-07-29T02:12:57;19.60;99.90
8436;DHT22;4255;48.730;9.156;2023-07-29T02:15:22;19.50;99.90
8436;DHT22;4255;48.730;9.156;2023-07-29T02:17:50;19.50;99.90
8436;DHT22;4255;48.730;9.156;2023-07-29T02:20:17;19.50;99.90
8436;DHT22;4255;48.730;9.156;2023-07-29T02:22:42;19.40;99.90
8436;DHT22;4255;48.730;9.156;2023-07-29T02:25:08;19.50;99.90
8436;DHT22;4255;48.730;9.156;2023-07-29T02:27:35;19.60;99.90
8436;DHT22;4255;48.730;9.156;2023-07-29T02:30:01;19.50;99.90
8436;DHT22;4255;48.730;9.156;2023-07-29T02:32:27;19.50;99.90
8436;DHT22;4255;48.730;9.156;2023-07-29T02:34:53;19.40;99.90
8436;DHT22;4255;48.730;9.156;2023-07-29T02:37:19;19.40;99.90
8436;DHT22;4255;48.730;9.156;2023-07-29T02:39:45;19.30;99.90
8436;DHT22;4255;48.730;9.156;2023-07-29T02:42:11;19.10;99.90
8436;DHT22;4255;48.730;9.156;2023-07-29T02:44:38;19.20;99.90
8436;DHT22;4255;48.730;9.156;2023-07-29T02:47:04;19.20;99.90
8436;DHT22;4255;48.730;9.156;2023-07-29T02:49:29;19.00;99.90
8436;DHT22;4255;48.730;9.156;2023-07-29T02:51:55;19.10;99.90
8436;DHT22;4255;48.730;9.156;2023-07-29T02:54:21;19.20;99.90
8436;DHT22;4255;48.730;9.156;2023-07-29T02:56:47;19.20;99.90
8436;DHT22;4255;48.730;9.156;2023-07-29T02:59:12;19.10;99.90
8436;DHT22;4255;48.730;9.156;2023-07-29T03:01:38;19.10;99.90
8436;DHT22;4255;48.730;9.156;2023-07-29T03:04:03;19.10;99.90
8436;DHT22;4255;48.730;9.156;2023-07-29T03:06:29;19.10;99.90
8436;DHT22;4255;48.730;9.156;2023-07-29T03:08:55;19.20;99.90
8436;DHT22;4255;48.730;9.156;2023-07-29T03:11:20;19.30;99.90
8436;DHT22;4255;48.730;9.156;2023-07-29T03:13:46;19.50;99.90
8436;DHT22;4255;48.730;9.156;2023-07-29T03:16:16;19.50;99.90
8436;DHT22;4255;48.730;9.156;2023-07-29T03:18:44;19.50;99.90
8436;DHT22;4255;48.730;9.156;2023-07-29T03:21:10;19.50;99.90
8436;DHT22;4255;48.730;9.156;2023-07-29T03:23:36;19.50;99.90
8436;DHT22;4255;48.730;9.156;2023-07-29T03:26:03;19.40;99.90
8436;DHT22;4255;48.730;9.156;2023-07-29T03:28:37;19.40;99.90
8436;DHT22;4255;48.730;9.156;2023-07-29T03:31:02;19.50;99.90
8436;DHT22;4255;48.730;9.156;2023-07-29T03:33:29;19.40;99.90
8436;DHT22;4255;48.730;9.156;2023-07-29T03:35:54;19.30;99.90
8436;DHT22;4255;48.730;9.156;2023-07-29T03:38:20;19.30;99.90
8436;DHT22;4255;48.730;9.156;2023-07-29T03:40:46;19.40;99.90
8436;DHT22;4255;48.730;9.156;2023-07-29T03:43:12;19.40;99.90
8436;DHT22;4255;48.730;9.156;2023-07-29T03:45:38;19.50;99.90
8436;DHT22;4255;48.730;9.156;2023-07-29T03:48:04;19.40;99.90
8436;DHT22;4255;48.730;9.156;2023-07-29T03:50:32;19.50;99.90
8436;DHT22;4255;48.730;9.156;2023-07-29T03:52:58;19.50;99.90
8436;DHT22;4255;48.730;9.156;2023-07-29T03:55:23;19.50;99.90
8436;DHT22;4255;48.730;9.156;2023-07-29T03:57:50;19.50;99.90
8436;DHT22;4255;48.730;9.156;2023-07-29T04:00:15;19.60;99.90
8436;DHT22;4255;48.730;9.156;2023-07-29T04:02:44;19.60;99.90
8436;DHT22;4255;48.730;9.156;2023-07-29T04:05:11;19.70;99.90
8436;DHT22;4255;48.730;9.156;2023-07-29T04:07:36;19.60;99.90
8436;DHT22;4255;48.730;9.156;2023-07-29T04:10:03;19.80;99.90
8436;DHT22;4255;48.730;9.156;2023-07-29T04:12:28;19.70;99.90
8436;DHT22;4255;48.730;9.156;2023-07-29T04:14:54;19.60;99.90
8436;DHT22;4255;48.730;9.156;2023-07-29T04:17:19;19.50;99.90
8436;DHT22;4255;48.730;9.156;2023-07-29T04:19:45;19.40;99.90
8436;DHT22;4255;48.730;9.156;2023-07-29T04:22:11;19.50;99.90
8436;DHT22;4255;48.730;9.156;2023-07-29T04:24:37;19.60;99.90
8436;DHT22;4255;48.730;9.156;2023-07-29T04:27:04;19.60;99.90
8436;DHT22;4255;48.730;9.156;2023-07-29T04:29:29;19.60;99.90
8436;DHT22;4255;48.730;9.156;2023-07-29T04:31:55;19.70;99.90
8436;DHT22;4255;48.730;9.156;2023-07-29T04:34:21;19.60;99.90
8436;DHT22;4255;48.730;9.156;2023-07-29T04:36:47;19.60;99.90
8436;DHT22;4255;48.730;9.156;2023-07-29T04:39:13;19.40;99.90
8436;DHT22;4255;48.730;9.156;2023-07-29T04:41:39;19.50;99.90
8436;DHT22;4255;48.730;9.156;2023-07-29T04:44:05;19.40;99.90
8436;DHT22;4255;48.730;9.156;2023-07-29T04:46:31;19.40;99.90
8436;DHT22;4255;48.730;9.156;2023-07-29T04:48:56;19.40;99.90
8436;DHT22;4255;48.730;9.156;2023-07-29T04:51:23;19.40;99.90
8436;DHT22;4255;48.730;9.156;2023-07-29T04:53:48;19.40;99.90
8436;DHT22;4255;48.730;9.156;2023-07-29T04:56:14;19.50;99.90
8436;DHT22;4255;48.730;9.156;2023-07-29T04:58:40;19.40;99.90
8436;DHT22;4255;48.730;9.156;2023-07-29T05:01:06;19.40;99.90
8436;DHT22;4255;48.730;9.156;2023-07-29T05:03:32;19.50;99.90
8436;DHT22;4255;48.730;9.156;2023-07-29T05:05:58;19.60;99.90
8436;DHT22;4255;48.730;9.156;2023-07-29T05:08:27;19.60;99.90
8436;DHT22;4255;48.730;9.156;2023-07-29T05:10:53;19.60;99.90
8436;DHT22;4255;48.730;9.156;2023-07-29T05:13:20;19.60;99.90
8436;DHT22;4255;48.730;9.156;2023-07-29T05:15:47;19.60;99.90
8436;DHT22;4255;48.730;9.156;2023-07-29T05:18:14;19.70;99.90
8436;DHT22;4255;48.730;9.156;2023-07-29T05:20:40;19.70;99.90
8436;DHT22;4255;48.730;9.156;2023-07-29T05:23:05;19.60;99.90
8436;DHT22;4255;48.730;9.156;2023-07-29T05:25:31;19.50;99.90
8436;DHT22;4255;48.730;9.156;2023-07-29T05:27:56;19.50;99.90
8436;DHT22;4255;48.730;9.156;2023-07-29T05:30:23;19.40;99.90
8436;DHT22;4255;48.730;9.156;2023-07-29T05:32:48;19.30;99.90
8436;DHT22;4255;48.730;9.156;2023-07-29T05:35:14;19.30;99.90
8436;DHT22;4255;48.730;9.156;2023-07-29T05:37:40;19.20;99.90
8436;DHT22;4255;48.730;9.156;2023-07-29T05:40:07;19.20;99.90
8436;DHT22;4255;48.730;9.156;2023-07-29T05:42:34;19.10;99.90
8436;DHT22;4255;48.730;9.156;2023-07-29T05:44:59;19.20;99.90
8436;DHT22;4255;48.730;9.156;2023-07-29T05:47:25;19.20;99.90
8436;DHT22;4255;48.730;9.156;2023-07-29T05:49:52;19.40;99.90
8436;DHT22;4255;48.730;9.156;2023-07-29T05:52:18;19.60;99.90
8436;DHT22;4255;48.730;9.156;2023-07-29T05:54:44;19.70;99.90
8436;DHT22;4255;48.730;9.156;2023-07-29T05:57:11;19.80;99.90
8436;DHT22;4255;48.730;9.156;2023-07-29T05:59:36;19.70;99.90
8436;DHT22;4255;48.730;9.156;2023-07-29T06:02:02;19.70;99.90
8436;DHT22;4255;48.730;9.156;2023-07-29T06:04:28;19.70;99.90
8436;DHT22;4255;48.730;9.156;2023-07-29T06:06:54;19.90;99.90
8436;DHT22;4255;48.730;9.156;2023-07-29T06:09:21;20.10;99.90
8436;DHT22;4255;48.730;9.156;2023-07-29T06:11:47;20.10;99.90
8436;DHT22;4255;48.730;9.156;2023-07-29T06:14:12;20.20;99.90
8436;DHT22;4255;48.730;9.156;2023-07-29T06:16:38;20.30;99.90
8436;DHT22;4255;48.730;9.156;2023-07-29T06:19:04;20.40;99.90
8436;DHT22;4255;48.730;9.156;2023-07-29T06:21:30;20.50;99.90
8436;DHT22;4255;48.730;9.156;2023-07-29T06:23:55;20.70;99.90
8436;DHT22;4255;48.730;9.156;2023-07-29T06:26:21;20.90;99.90
8436;DHT22;4255;48.730;9.156;2023-07-29T06:28:47;21.00;99.90
8436;DHT22;4255;48.730;9.156;2023-07-29T06:31:12;20.90;99.90
8436;DHT22;4255;48.730;9.156;2023-07-29T06:33:38;20.90;99.90
8436;DHT22;4255;48.730;9.156;2023-07-29T06:36:04;20.90;99.90
8436;DHT22;4255;48.730;9.156;2023-07-29T06:38:29;21.00;99.90
8436;DHT22;4255;48.730;9.156;2023-07-29T06:40:56;21.20;99.90
8436;DHT22;4255;48.730;9.156;2023-07-29T06:43:21;21.30;99.90
8436;DHT22;4255;48.730;9.156;2023-07-29T06:45:47;21.20;99.90
8436;DHT22;4255;48.730;9.156;2023-07-29T06:48:12;21.30;99.90
8436;DHT22;4255;48.730;9.156;2023-07-29T06:50:38;21.30;99.90
8436;DHT22;4255;48.730;9.156;2023-07-29T06:53:04;21.30;99.90
8436;DHT22;4255;48.730;9.156;2023-07-29T06:55:29;21.10;99.90
8436;DHT22;4255;48.730;9.156;2023-07-29T06:57:55;20.80;99.90
8436;DHT22;4255;48.730;9.156;2023-07-29T07:00:20;20.70;99.90
8436;DHT22;4255;48.730;9.156;2023-07-29T07:02:46;20.40;99.90
8436;DHT22;4255;48.730;9.156;2023-07-29T07:05:12;20.00;99.90
8436;DHT22;4255;48.730;9.156;2023-07-29T07:07:37;19.80;99.90
8436;DHT22;4255;48.730;9.156;2023-07-29T07:10:03;19.60;99.90
8436;DHT22;4255;48.730;9.156;2023-07-29T07:12:30;19.50;99.90
8436;DHT22;4255;48.730;9.156;2023-07-29T07:14:55;19.40;99.90
8436;DHT22;4255;48.730;9.156;2023-07-29T07:17:21;19.30;99.90
8436;DHT22;4255;48.730;9.156;2023-07-29T07:19:46;19.30;99.90
8436;DHT22;4255;48.730;9.156;2023-07-29T07:22:12;19.20;99.90
8436;DHT22;4255;48.730;9.156;2023-07-29T07:24:38;19.30;99.90
8436;DHT22;4255;48.730;9.156;2023-07-29T07:27:03;19.40;99.90
8436;DHT22;4255;48.730;9.156;2023-07-29T07:29:29;19.60;99.90
8436;DHT22;4255;48.730;9.156;2023-07-29T07:31:56;19.60;99.90
8436;DHT22;4255;48.730;9.156;2023-07-29T07:34:22;19.60;99.90
8436;DHT22;4255;48.730;9.156;2023-07-29T07:36:48;19.70;99.90
8436;DHT22;4255;48.730;9.156;2023-07-29T07:39:15;19.80;99.90
8436;DHT22;4255;48.730;9.156;2023-07-29T07:41:41;20.00;99.90
8436;DHT22;4255;48.730;9.156;2023-07-29T07:44:07;20.10;99.90
8436;DHT22;4255;48.730;9.156;2023-07-29T07:46:35;20.10;99.90
8436;DHT22;4255;48.730;9.156;2023-07-29T07:49:01;20.20;99.90
8436;DHT22;4255;48.730;9.156;2023-07-29T07:51:27;20.30;99.90
8436;DHT22;4255;48.730;9.156;2023-07-29T07:53:52;20.40;99.90
8436;DHT22;4255;48.730;9.156;2023-07-29T07:56:18;20.60;99.90
8436;DHT22;4255;48.730;9.156;2023-07-29T07:58:43;20.90;99.90
8436;DHT22;4255;48.730;9.156;2023-07-29T08:01:09;20.80;99.90
8436;DHT22;4255;48.730;9.156;2023-07-29T08:03:35;20.70;99.90
8436;DHT22;4255;48.730;9.156;2023-07-29T08:06:01;20.80;99.90
8436;DHT22;4255;48.730;9.156;2023-07-29T08:08:28;20.90;99.90
8436;DHT22;4255;48.730;9.156;2023-07-29T08:10:54;21.00;99.90
8436;DHT22;4255;48.730;9.156;2023-07-29T08:13:21;21.10;99.90
8436;DHT22;4255;48.730;9.156;2023-07-29T08:15:51;21.20;99.90
8436;DHT22;4255;48.730;9.156;2023-07-29T08:18:17;21.30;99.90
8436;DHT22;4255;48.730;9.156;2023-07-29T08:20:57;21.30;99.90
8436;DHT22;4255;48.730;9.156;2023-07-29T08:23:33;21.40;99.90
8436;DHT22;4255;48.730;9.156;2023-07-29T08:26:00;21.60;99.90
8436;DHT22;4255;48.730;9.156;2023-07-29T08:30:56;22.10;99.90
8436;DHT22;4255;48.730;9.156;2023-07-29T08:33:22;22.20;99.90
8436;DHT22;4255;48.730;9.156;2023-07-29T08:35:48;22.20;99.90
8436;DHT22;4255;48.730;9.156;2023-07-29T08:38:13;22.30;99.90
8436;DHT22;4255;48.730;9.156;2023-07-29T08:40:44;22.40;99.90
8436;DHT22;4255;48.730;9.156;2023-07-29T08:43:12;22.40;99.90
8436;DHT22;4255;48.730;9.156;2023-07-29T08:45:40;22.60;99.90
8436;DHT22;4255;48.730;9.156;2023-07-29T08:48:09;22.60;99.90
8436;DHT22;4255;48.730;9.156;2023-07-29T08:50:39;22.70;99.90
8436;DHT22;4255;48.730;9.156;2023-07-29T08:53:07;22.90;99.90
8436;DHT22;4255;48.730;9.156;2023-07-29T08:55:33;23.00;99.90
8436;DHT22;4255;48.730;9.156;2023-07-29T08:57:59;23.00;99.90
8436;DHT22;4255;48.730;9.156;2023-07-29T09:00:28;22.80;99.90
8436;DHT22;4255;48.730;9.156;2023-07-29T09:02:54;23.00;99.90
8436;DHT22;4255;48.730;9.156;2023-07-29T09:05:23;23.20;99.90
8436;DHT22;4255;48.730;9.156;2023-07-29T09:07:51;23.20;99.90
8436;DHT22;4255;48.730;9.156;2023-07-29T09:10:21;23.00;99.90
8436;DHT22;4255;48.730;9.156;2023-07-29T09:12:49;23.30;99.90
8436;DHT22;4255;48.730;9.156;2023-07-29T09:15:27;23.40;99.90
8436;DHT22;4255;48.730;9.156;2023-07-29T09:17:53;23.40;99.90
8436;DHT22;4255;48.730;9.156;2023-07-29T09:20:24;23.40;99.90
8436;DHT22;4255;48.730;9.156;2023-07-29T09:22:51;23.40;99.90
8436;DHT22;4255;48.730;9.156;2023-07-29T09:25:25;23.40;99.90
8436;DHT22;4255;48.730;9.156;2023-07-29T09:27:51;23.60;99.90
8436;DHT22;4255;48.730;9.156;2023-07-29T09:30:17;23.70;99.90
8436;DHT22;4255;48.730;9.156;2023-07-29T09:32:43;23.90;99.90
8436;DHT22;4255;48.730;9.156;2023-07-29T09:35:12;24.20;99.90
8436;DHT22;4255;48.730;9.156;2023-07-29T09:37:38;24.30;99.90
8436;DHT22;4255;48.730;9.156;2023-07-29T09:40:06;24.40;99.90
8436;DHT22;4255;48.730;9.156;2023-07-29T09:42:38;24.10;99.90
8436;DHT22;4255;48.730;9.156;2023-07-29T09:45:04;24.00;99.90
8436;DHT22;4255;48.730;9.156;2023-07-29T09:47:30;24.20;99.90
8436;DHT22;4255;48.730;9.156;2023-07-29T09:49:56;24.40;99.90
8436;DHT22;4255;48.730;9.156;2023-07-29T09:52:22;24.50;99.90
8436;DHT22;4255;48.730;9.156;2023-07-29T09:54:48;24.70;99.90
8436;DHT22;4255;48.730;9.156;2023-07-29T09:57:15;24.70;99.90
8436;DHT22;4255;48.730;9.156;2023-07-29T09:59:41;24.60;99.90
8436;DHT22;4255;48.730;9.156;2023-07-29T10:02:15;24.60;99.90
8436;DHT22;4255;48.730;9.156;2023-07-29T10:04:42;25.10;99.90
8436;DHT22;4255;48.730;9.156;2023-07-29T10:07:09;25.50;99.90
8436;DHT22;4255;48.730;9.156;2023-07-29T10:09:35;25.60;99.90
8436;DHT22;4255;48.730;9.156;2023-07-29T10:12:01;25.40;99.90
8436;DHT22;4255;48.730;9.156;2023-07-29T10:14:28;25.60;99.90
8436;DHT22;4255;48.730;9.156;2023-07-29T10:16:57;25.70;99.90
8436;DHT22;4255;48.730;9.156;2023-07-29T10:19:24;25.60;99.90
8436;DHT22;4255;48.730;9.156;2023-07-29T10:21:51;25.50;99.90
8436;DHT22;4255;48.730;9.156;2023-07-29T10:24:19;25.60;99.90
8436;DHT22;4255;48.730;9.156;2023-07-29T10:26:50;25.80;99.90
8436;DHT22;4255;48.730;9.156;2023-07-29T10:29:19;25.70;99.90
8436;DHT22;4255;48.730;9.156;2023-07-29T10:31:48;25.60;99.90
8436;DHT22;4255;48.730;9.156;2023-07-29T10:34:17;25.50;99.90
8436;DHT22;4255;48.730;9.156;2023-07-29T10:36:45;25.40;99.90
8436;DHT22;4255;48.730;9.156;2023-07-29T10:39:12;25.30;99.90
8436;DHT22;4255;48.730;9.156;2023-07-29T10:42:02;25.20;99.90
8436;DHT22;4255;48.730;9.156;2023-07-29T10:47:13;25.30;99.90
8436;DHT22;4255;48.730;9.156;2023-07-29T10:49:43;24.80;99.90
8436;DHT22;4255;48.730;9.156;2023-07-29T10:52:28;24.90;99.90
8436;DHT22;4255;48.730;9.156;2023-07-29T10:54:54;25.10;99.90
8436;DHT22;4255;48.730;9.156;2023-07-29T10:57:37;25.10;99.90
8436;DHT22;4255;48.730;9.156;2023-07-29T11:00:04;25.10;99.90
8436;DHT22;4255;48.730;9.156;2023-07-29T11:02:35;25.40;99.90
8436;DHT22;4255;48.730;9.156;2023-07-29T11:05:16;25.70;99.90
8436;DHT22;4255;48.730;9.156;2023-07-29T11:07:48;25.50;99.90
8436;DHT22;4255;48.730;9.156;2023-07-29T11:10:15;25.80;99.90
8436;DHT22;4255;48.730;9.156;2023-07-29T11:12:50;26.20;99.90
8436;DHT22;4255;48.730;9.156;2023-07-29T11:15:22;26.10;99.90
8436;DHT22;4255;48.730;9.156;2023-07-29T11:20:23;25.80;99.90
8436;DHT22;4255;48.730;9.156;2023-07-29T11:22:49;25.80;99.90
8436;DHT22;4255;48.730;9.156;2023-07-29T11:25:17;25.90;99.90
8436;DHT22;4255;48.730;9.156;2023-07-29T11:27:44;25.70;99.90
8436;DHT22;4255;48.730;9.156;2023-07-29T11:30:11;25.70;99.90
8436;DHT22;4255;48.730;9.156;2023-07-29T11:32:39;25.20;99.90
8436;DHT22;4255;48.730;9.156;2023-07-29T11:35:07;25.20;99.90
8436;DHT22;4255;48.730;9.156;2023-07-29T11:37:40;25.40;99.90
8436;DHT22;4255;48.730;9.156;2023-07-29T11:40:07;25.40;99.90
8436;DHT22;4255;48.730;9.156;2023-07-29T11:42:36;25.80;99.90
8436;DHT22;4255;48.730;9.156;2023-07-29T11:45:03;25.80;99.90
8436;DHT22;4255;48.730;9.156;2023-07-29T11:47:32;25.70;99.90
8436;DHT22;4255;48.730;9.156;2023-07-29T11:50:02;25.60;99.90
8436;DHT22;4255;48.730;9.156;2023-07-29T11:52:32;25.70;99.90
8436;DHT22;4255;48.730;9.156;2023-07-29T11:54:58;26.00;99.90
8436;DHT22;4255;48.730;9.156;2023-07-29T11:57:25;25.90;99.90
8436;DHT22;4255;48.730;9.156;2023-07-29T11:59:51;26.00;99.90
8436;DHT22;4255;48.730;9.156;2023-07-29T12:02:17;26.20;99.90
8436;DHT22;4255;48.730;9.156;2023-07-29T12:04:46;26.50;99.90
8436;DHT22;4255;48.730;9.156;2023-07-29T12:07:13;26.80;99.90
8436;DHT22;4255;48.730;9.156;2023-07-29T12:09:43;27.10;99.90
8436;DHT22;4255;48.730;9.156;2023-07-29T12:12:09;27.30;99.90
8436;DHT22;4255;48.730;9.156;2023-07-29T12:14:35;27.70;99.90
8436;DHT22;4255;48.730;9.156;2023-07-29T12:17:02;27.50;99.90
8436;DHT22;4255;48.730;9.156;2023-07-29T12:21:58;27.50;99.90
8436;DHT22;4255;48.730;9.156;2023-07-29T12:24:24;27.40;99.90
8436;DHT22;4255;48.730;9.156;2023-07-29T12:26:53;27.30;99.90
8436;DHT22;4255;48.730;9.156;2023-07-29T12:29:19;27.40;99.90
8436;DHT22;4255;48.730;9.156;2023-07-29T12:31:48;27.40;99.90
8436;DHT22;4255;48.730;9.156;2023-07-29T12:34:20;27.30;99.90
8436;DHT22;4255;48.730;9.156;2023-07-29T12:36:48;26.90;99.90
8436;DHT22;4255;48.730;9.156;2023-07-29T12:39:40;27.20;99.90
8436;DHT22;4255;48.730;9.156;2023-07-29T12:42:09;27.20;99.90
8436;DHT22;4255;48.730;9.156;2023-07-29T12:44:36;27.00;99.90
8436;DHT22;4255;48.730;9.156;2023-07-29T12:47:03;27.10;99.90
8436;DHT22;4255;48.730;9.156;2023-07-29T12:49:29;27.20;99.90
8436;DHT22;4255;48.730;9.156;2023-07-29T12:51:56;27.20;99.90
8436;DHT22;4255;48.730;9.156;2023-07-29T12:54:22;27.30;99.90
8436;DHT22;4255;48.730;9.156;2023-07-29T12:56:48;27.20;99.90
8436;DHT22;4255;48.730;9.156;2023-07-29T12:59:13;27.30;99.90
8436;DHT22;4255;48.730;9.156;2023-07-29T13:01:39;27.00;99.90
8436;DHT22;4255;48.730;9.156;2023-07-29T13:04:05;27.20;99.90
8436;DHT22;4255;48.730;9.156;2023-07-29T13:06:30;27.20;99.90
8436;DHT22;4255;48.730;9.156;2023-07-29T13:08:56;27.40;99.90
8436;DHT22;4255;48.730;9.156;2023-07-29T13:11:21;27.20;99.90
8436;DHT22;4255;48.730;9.156;2023-07-29T13:13:47;27.20;99.90
8436;DHT22;4255;48.730;9.156;2023-07-29T13:16:13;27.40;99.90
8436;DHT22;4255;48.730;9.156;2023-07-29T13:18:39;27.40;99.90
8436;DHT22;4255;48.730;9.156;2023-07-29T13:21:05;27.30;99.90
8436;DHT22;4255;48.730;9.156;2023-07-29T13:23:31;27.10;99.90
8436;DHT22;4255;48.730;9.156;2023-07-29T13:25:57;27.50;99.90
8436;DHT22;4255;48.730;9.156;2023-07-29T13:28:23;27.40;99.90
8436;DHT22;4255;48.730;9.156;2023-07-29T13:30:49;27.00;99.90
8436;DHT22;4255;48.730;9.156;2023-07-29T13:33:14;26.90;99.90
8436;DHT22;4255;48.730;9.156;2023-07-29T13:35:40;27.00;99.90
8436;DHT22;4255;48.730;9.156;2023-07-29T13:38:05;27.20;99.90
8436;DHT22;4255;48.730;9.156;2023-07-29T13:40:31;27.00;99.90
8436;DHT22;4255;48.730;9.156;2023-07-29T13:42:57;26.80;99.90
8436;DHT22;4255;48.730;9.156;2023-07-29T13:45:23;26.80;99.90
8436;DHT22;4255;48.730;9.156;2023-07-29T13:47:49;26.90;99.90
8436;DHT22;4255;48.730;9.156;2023-07-29T13:50:15;27.20;99.90
8436;DHT22;4255;48.730;9.156;2023-07-29T13:52:41;27.40;99.90
8436;DHT22;4255;48.730;9.156;2023-07-29T13:55:07;27.20;99.90
8436;DHT22;4255;48.730;9.156;2023-07-29T13:57:33;27.30;99.90
8436;DHT22;4255;48.730;9.156;2023-07-29T13:59:58;27.30;99.90
8436;DHT22;4255;48.730;9.156;2023-07-29T14:02:24;27.30;99.90
8436;DHT22;4255;48.730;9.156;2023-07-29T14:04:53;27.30;99.90
8436;DHT22;4255;48.730;9.156;2023-07-29T14:07:18;27.20;99.90
8436;DHT22;4255;48.730;9.156;2023-07-29T14:09:45;27.00;99.90
8436;DHT22;4255;48.730;9.156;2023-07-29T14:12:10;26.90;99.90
8436;DHT22;4255;48.730;9.156;2023-07-29T14:14:38;26.50;99.90
8436;DHT22;4255;48.730;9.156;2023-07-29T14:17:06;26.50;99.90
8436;DHT22;4255;48.730;9.156;2023-07-29T14:19:34;26.50;99.90
8436;DHT22;4255;48.730;9.156;2023-07-29T14:21:59;26.40;99.90
8436;DHT22;4255;48.730;9.156;2023-07-29T14:24:25;26.40;99.90
8436;DHT22;4255;48.730;9.156;2023-07-29T14:26:51;26.40;99.90
8436;DHT22;4255;48.730;9.156;2023-07-29T14:29:16;26.30;99.90
8436;DHT22;4255;48.730;9.156;2023-07-29T14:31:42;26.20;99.90
8436;DHT22;4255;48.730;9.156;2023-07-29T14:34:07;26.20;99.90
8436;DHT22;4255;48.730;9.156;2023-07-29T14:36:33;26.20;99.90
8436;DHT22;4255;48.730;9.156;2023-07-29T14:38:58;26.20;99.90
8436;DHT22;4255;48.730;9.156;2023-07-29T14:41:24;26.40;99.90
8436;DHT22;4255;48.730;9.156;2023-07-29T14:43:50;26.40;99.90
8436;DHT22;4255;48.730;9.156;2023-07-29T14:46:15;26.50;99.90
8436;DHT22;4255;48.730;9.156;2023-07-29T14:48:41;26.30;99.90
8436;DHT22;4255;48.730;9.156;2023-07-29T14:51:06;26.00;99.90
8436;DHT22;4255;48.730;9.156;2023-07-29T14:53:32;26.00;99.90
8436;DHT22;4255;48.730;9.156;2023-07-29T14:55:58;26.00;99.90
8436;DHT22;4255;48.730;9.156;2023-07-29T14:58:24;25.90;99.90
8436;DHT22;4255;48.730;9.156;2023-07-29T15:00:51;26.10;99.90
8436;DHT22;4255;48.730;9.156;2023-07-29T15:03:17;26.40;99.90
8436;DHT22;4255;48.730;9.156;2023-07-29T15:05:43;26.40;99.90
8436;DHT22;4255;48.730;9.156;2023-07-29T15:08:09;26.30;99.90
8436;DHT22;4255;48.730;9.156;2023-07-29T15:10:35;26.40;99.90
8436;DHT22;4255;48.730;9.156;2023-07-29T15:13:01;26.60;99.90
8436;DHT22;4255;48.730;9.156;2023-07-29T15:15:27;26.60;99.90
8436;DHT22;4255;48.730;9.156;2023-07-29T15:17:53;26.50;99.90
8436;DHT22;4255;48.730;9.156;2023-07-29T15:20:18;26.30;99.90
8436;DHT22;4255;48.730;9.156;2023-07-29T15:22:44;26.20;99.90
8436;DHT22;4255;48.730;9.156;2023-07-29T15:25:10;26.30;99.90
8436;DHT22;4255;48.730;9.156;2023-07-29T15:27:37;26.30;99.90
8436;DHT22;4255;48.730;9.156;2023-07-29T15:30:03;26.10;99.90
8436;DHT22;4255;48.730;9.156;2023-07-29T15:32:29;26.00;99.90
8436;DHT22;4255;48.730;9.156;2023-07-29T15:34:54;25.80;99.90
8436;DHT22;4255;48.730;9.156;2023-07-29T15:37:20;26.00;99.90
8436;DHT22;4255;48.730;9.156;2023-07-29T15:39:45;26.20;99.90
8436;DHT22;4255;48.730;9.156;2023-07-29T15:42:11;26.50;99.90
8436;DHT22;4255;48.730;9.156;2023-07-29T15:44:37;26.70;99.90
8436;DHT22;4255;48.730;9.156;2023-07-29T15:47:03;26.80;99.90
8436;DHT22;4255;48.730;9.156;2023-07-29T15:49:29;26.70;99.90
8436;DHT22;4255;48.730;9.156;2023-07-29T15:51:54;26.80;99.90
8436;DHT22;4255;48.730;9.156;2023-07-29T15:54:20;26.90;99.90
8436;DHT22;4255;48.730;9.156;2023-07-29T15:56:46;26.90;99.90
8436;DHT22;4255;48.730;9.156;2023-07-29T15:59:11;26.70;99.90
8436;DHT22;4255;48.730;9.156;2023-07-29T16:01:37;26.80;99.90
8436;DHT22;4255;48.730;9.156;2023-07-29T16:04:03;26.70;99.90
8436;DHT22;4255;48.730;9.156;2023-07-29T16:06:29;26.50;99.90
8436;DHT22;4255;48.730;9.156;2023-07-29T16:08:55;26.60;99.90
8436;DHT22;4255;48.730;9.156;2023-07-29T16:11:21;26.60;99.90
8436;DHT22;4255;48.730;9.156;2023-07-29T16:13:47;26.70;99.90